createdAt,value
2017-08-01T09:49:36.944Z,25.30
2017-08-01T09:52:05.273Z,25.20
2017-08-01T09:54:33.597Z,25.20
2017-08-01T09:57:02.000Z,25.30
2017-08-01T09:59:30.284Z,25.40
2017-08-01T10:01:58.689Z,25.50
2017-08-01T10:04:26.966Z,25.50
2017-08-01T10:06:55.289Z,25.60
2017-08-01T10:09:24.344Z,26.00
2017-08-01T10:11:52.752Z,26.00
2017-08-01T10:14:21.021Z,26.30
2017-08-01T10:16:49.302Z,26.40
2017-08-01T10:19:17.620Z,26.50
2017-08-01T10:21:45.941Z,26.50
2017-08-01T10:24:15.031Z,26.70
2017-08-01T10:26:43.515Z,26.70
2017-08-01T10:29:11.808Z,26.90
2017-08-01T10:31:40.115Z,27.10
2017-08-01T10:34:08.433Z,27.20
2017-08-01T10:36:36.706Z,27.30
2017-08-01T10:39:05.783Z,27.50
2017-08-01T10:41:34.067Z,27.40
2017-08-01T10:44:02.400Z,27.60
2017-08-01T10:46:30.688Z,27.70
2017-08-01T10:48:59.740Z,27.80
2017-08-01T10:51:28.050Z,27.80
2017-08-01T10:53:56.368Z,27.90
2017-08-01T10:56:25.426Z,27.70
2017-08-01T10:58:53.764Z,27.70
2017-08-01T11:01:22.835Z,27.80
2017-08-01T11:03:51.165Z,27.80
2017-08-01T11:06:20.248Z,27.90
2017-08-01T11:08:48.537Z,27.80
2017-08-01T11:11:16.851Z,27.90
2017-08-01T11:13:45.904Z,28.00
2017-08-01T11:16:14.206Z,28.00
2017-08-01T11:18:42.496Z,28.10
2017-08-01T11:21:10.805Z,28.10
2017-08-01T11:23:39.089Z,28.10
2017-08-01T11:26:07.412Z,28.00
2017-08-01T11:28:35.687Z,28.00
2017-08-01T11:31:04.762Z,28.20
2017-08-01T11:33:33.075Z,28.10
2017-08-01T11:36:02.169Z,28.10
2017-08-01T11:38:30.442Z,28.10
2017-08-01T11:40:58.719Z,28.10
2017-08-01T11:43:27.026Z,28.30
2017-08-01T11:45:55.339Z,28.30
2017-08-01T11:48:23.638Z,28.40
2017-08-01T11:50:52.713Z,28.60
2017-08-01T11:53:21.017Z,28.60
2017-08-01T11:55:49.304Z,28.60
2017-08-01T11:58:17.624Z,28.50
2017-08-01T12:00:45.912Z,28.50
2017-08-01T12:03:14.199Z,28.50
2017-08-01T12:05:43.288Z,28.80
2017-08-01T12:08:11.573Z,28.80
2017-08-01T12:10:39.894Z,29.00
2017-08-01T12:13:08.184Z,29.10
2017-08-01T12:15:36.468Z,29.10
2017-08-01T12:18:04.800Z,29.30
2017-08-01T12:20:33.093Z,29.40
2017-08-01T12:23:01.363Z,29.70
2017-08-01T12:25:29.687Z,29.90
2017-08-01T12:27:57.967Z,29.80
2017-08-01T12:30:26.271Z,29.70
2017-08-01T12:32:54.550Z,29.80
2017-08-01T12:35:22.933Z,29.90
2017-08-01T12:37:51.216Z,29.80
2017-08-01T12:40:19.497Z,29.90
2017-08-01T12:42:47.911Z,30.00
2017-08-01T12:45:16.182Z,30.20
2017-08-01T12:47:44.458Z,30.00
2017-08-01T12:50:12.784Z,29.90
2017-08-01T12:52:41.064Z,29.80
2017-08-01T12:55:09.392Z,29.90
2017-08-01T12:57:37.703Z,29.90
2017-08-01T13:00:05.983Z,30.10
2017-08-01T13:02:34.259Z,30.30
2017-08-01T13:05:02.580Z,30.40
2017-08-01T13:07:30.859Z,30.50
2017-08-01T13:09:59.172Z,30.40
2017-08-01T13:12:27.493Z,30.50
2017-08-01T13:14:55.767Z,30.50
2017-08-01T13:17:24.076Z,30.40
2017-08-01T13:19:53.122Z,30.50
2017-08-01T13:22:21.440Z,30.50
2017-08-01T13:24:49.720Z,30.50
2017-08-01T13:27:18.041Z,30.60
2017-08-01T13:29:46.422Z,30.50
2017-08-01T13:32:14.812Z,30.50
2017-08-01T13:34:43.143Z,30.60
2017-08-01T13:37:11.470Z,30.60
2017-08-01T13:39:39.793Z,30.90
2017-08-01T13:42:08.085Z,31.00
2017-08-01T13:44:37.187Z,31.00
2017-08-01T13:47:05.468Z,31.10
2017-08-01T13:49:33.868Z,31.30
2017-08-01T13:52:02.251Z,31.50
2017-08-01T13:54:30.540Z,31.80
2017-08-01T13:56:58.847Z,31.80
2017-08-01T13:59:27.219Z,32.00
2017-08-01T14:01:55.610Z,32.00
2017-08-01T14:04:23.895Z,32.00
2017-08-01T14:06:52.212Z,32.00
2017-08-01T14:09:21.268Z,32.10
2017-08-01T14:11:49.592Z,32.10
2017-08-01T14:14:17.876Z,32.40
2017-08-01T14:16:46.155Z,32.20
2017-08-01T14:19:14.860Z,32.20
2017-08-01T14:21:43.142Z,32.10
2017-08-01T14:24:11.454Z,32.40
2017-08-01T14:26:39.740Z,32.40
2017-08-01T14:29:08.015Z,32.40
2017-08-01T14:31:36.328Z,32.40
2017-08-01T14:34:04.635Z,32.40
2017-08-01T14:36:32.956Z,32.60
2017-08-01T14:39:01.277Z,33.00
2017-08-01T14:41:29.596Z,33.20
2017-08-01T14:43:58.683Z,33.10
2017-08-01T14:46:27.063Z,33.10
2017-08-01T14:48:55.454Z,33.00
2017-08-01T14:51:23.759Z,33.10
2017-08-01T14:53:52.443Z,33.30
2017-08-01T14:56:20.731Z,33.20
2017-08-01T14:58:49.041Z,33.30
2017-08-01T15:01:17.413Z,33.50
2017-08-01T15:03:45.701Z,33.60
2017-08-01T15:06:14.100Z,33.50
2017-08-01T15:08:42.501Z,33.60
2017-08-01T15:11:10.872Z,34.00
2017-08-01T15:13:39.154Z,34.60
2017-08-01T15:16:07.455Z,35.30
2017-08-01T15:18:35.857Z,35.70
2017-08-01T15:21:04.231Z,36.40
2017-08-01T15:23:32.640Z,37.00
2017-08-01T15:26:00.911Z,37.60
2017-08-01T15:28:29.308Z,38.20
2017-08-01T15:30:57.604Z,38.90
2017-08-01T15:33:25.923Z,39.60
2017-08-01T15:35:54.202Z,40.30
2017-08-01T15:38:23.250Z,41.20
2017-08-01T15:40:51.571Z,41.10
2017-08-01T15:43:19.868Z,41.50
2017-08-01T15:45:48.182Z,41.50
2017-08-01T15:48:17.275Z,40.90
2017-08-01T15:50:45.659Z,40.90
2017-08-01T15:53:14.048Z,39.70
2017-08-01T15:55:42.539Z,38.50
2017-08-01T15:58:10.815Z,37.20
2017-08-01T16:00:39.100Z,36.10
2017-08-01T16:03:07.511Z,35.10
2017-08-01T16:05:35.782Z,34.20
2017-08-01T16:08:04.182Z,33.40
2017-08-01T16:10:32.580Z,33.10
2017-08-01T16:13:00.864Z,32.70
2017-08-01T16:15:29.188Z,32.60
2017-08-01T16:17:58.239Z,33.40
2017-08-01T16:20:26.551Z,33.30
2017-08-01T16:22:54.872Z,34.10
2017-08-01T16:25:23.960Z,35.20
2017-08-01T16:27:52.266Z,35.20
2017-08-01T16:30:21.343Z,36.80
2017-08-01T16:32:49.696Z,36.70
2017-08-01T16:35:18.028Z,36.80
2017-08-01T16:37:46.423Z,36.50
2017-08-01T16:40:14.707Z,36.50
2017-08-01T16:42:43.172Z,36.80
2017-08-01T16:45:11.494Z,36.40
2017-08-01T16:47:39.874Z,35.70
2017-08-01T16:50:08.175Z,34.70
2017-08-01T16:52:36.500Z,34.00
2017-08-01T16:55:04.797Z,33.10
2017-08-01T16:57:33.102Z,32.40
2017-08-01T17:00:01.397Z,31.60
2017-08-01T17:02:29.703Z,31.20
2017-08-01T17:04:58.011Z,30.90
2017-08-01T17:07:26.287Z,30.70
2017-08-01T17:09:54.599Z,30.40
2017-08-01T17:12:22.971Z,30.10
2017-08-01T17:14:51.373Z,29.90
2017-08-01T17:17:19.678Z,29.60
2017-08-01T17:19:48.851Z,29.20
2017-08-01T17:22:17.172Z,29.20
2017-08-01T17:24:45.467Z,29.10
2017-08-01T17:27:14.535Z,28.90
2017-08-01T17:29:42.847Z,28.90
2017-08-01T17:32:11.226Z,28.80
2017-08-01T17:34:39.611Z,28.80
2017-08-01T17:37:07.928Z,28.70
2017-08-01T17:39:36.307Z,28.60
2017-08-01T17:42:04.673Z,28.60
2017-08-01T17:44:32.991Z,28.50
2017-08-01T17:47:01.672Z,28.50
2017-08-01T17:49:30.936Z,28.50
2017-08-01T17:51:59.256Z,28.50
2017-08-01T17:54:27.568Z,28.40
2017-08-01T17:56:55.843Z,28.40
2017-08-01T17:59:24.164Z,28.40
2017-08-01T18:01:52.488Z,28.40
2017-08-01T18:04:20.780Z,28.30
2017-08-01T18:06:49.086Z,28.30
2017-08-01T18:09:17.443Z,28.20
2017-08-01T18:11:46.528Z,28.10
2017-08-01T18:14:14.834Z,28.00
2017-08-01T18:16:43.887Z,27.90
2017-08-01T18:19:12.212Z,27.90
2017-08-01T18:21:40.496Z,27.90
2017-08-01T18:24:08.823Z,27.70
2017-08-01T18:26:37.112Z,27.60
2017-08-01T18:29:05.808Z,27.50
2017-08-01T18:31:34.115Z,27.40
2017-08-01T18:34:02.456Z,27.40
2017-08-01T18:36:30.776Z,27.30
2017-08-01T18:38:59.088Z,27.20
2017-08-01T18:41:27.427Z,27.10
2017-08-01T18:43:55.730Z,27.10
2017-08-01T18:46:24.778Z,26.90
2017-08-01T18:48:53.087Z,26.90
2017-08-01T18:51:21.376Z,26.80
2017-08-01T18:53:49.672Z,26.70
2017-08-01T18:56:18.087Z,26.70
2017-08-01T18:58:46.367Z,26.60
2017-08-01T19:01:14.648Z,26.60
2017-08-01T19:03:42.962Z,26.60
2017-08-01T19:06:12.052Z,26.50
2017-08-01T19:08:40.384Z,26.40
2017-08-01T19:11:08.676Z,26.40
2017-08-01T19:13:37.020Z,26.30
2017-08-01T19:16:05.334Z,26.20
2017-08-01T19:18:34.424Z,26.10
2017-08-01T19:21:02.763Z,26.10
2017-08-01T19:23:31.061Z,26.10
2017-08-01T19:25:59.362Z,26.00
2017-08-01T19:28:27.698Z,26.00
2017-08-01T19:30:56.742Z,26.00
2017-08-01T19:33:25.185Z,26.00
2017-08-01T19:35:53.965Z,26.00
2017-08-01T19:38:22.360Z,25.90
2017-08-01T19:40:50.642Z,25.80
2017-08-01T19:43:19.147Z,25.60
2017-08-01T19:45:47.839Z,25.50
2017-08-01T19:48:16.253Z,25.30
2017-08-01T19:50:44.708Z,25.00
2017-08-01T19:53:13.280Z,24.60
2017-08-01T19:55:41.650Z,24.40
2017-08-01T19:58:10.704Z,23.90
2017-08-01T20:00:39.023Z,23.80
2017-08-01T20:03:07.349Z,23.70
2017-08-01T20:05:35.672Z,23.70
2017-08-01T20:08:03.992Z,23.50
2017-08-01T20:10:32.313Z,23.40
2017-08-01T20:13:00.604Z,23.30
2017-08-01T20:15:28.939Z,23.20
2017-08-01T20:17:57.225Z,23.30
2017-08-01T20:20:25.503Z,23.40
2017-08-01T20:22:53.828Z,23.20
2017-08-01T20:25:22.216Z,23.20
2017-08-01T20:27:50.612Z,23.10
2017-08-01T20:30:18.906Z,23.00
2017-08-01T20:32:47.233Z,23.00
2017-08-01T20:35:16.573Z,23.10
2017-08-01T20:37:45.695Z,23.00
2017-08-01T20:40:13.993Z,23.00
2017-08-01T20:42:42.305Z,22.90
2017-08-01T20:45:10.588Z,22.90
2017-08-01T20:47:38.905Z,22.90
2017-08-01T20:50:07.179Z,22.70
2017-08-01T20:52:35.507Z,22.70
2017-08-01T20:55:03.837Z,22.70
2017-08-01T20:57:33.008Z,22.70
2017-08-01T21:00:01.308Z,22.60
2017-08-01T21:02:29.830Z,22.60
2017-08-01T21:04:58.138Z,22.60
2017-08-01T21:07:26.423Z,22.60
2017-08-01T21:09:54.702Z,22.50
2017-08-01T21:12:23.789Z,22.40
2017-08-01T21:14:52.071Z,22.40
2017-08-01T21:17:20.550Z,22.40
2017-08-01T21:19:48.848Z,22.40
2017-08-01T21:22:17.221Z,22.40
2017-08-01T21:24:45.629Z,22.50
2017-08-01T21:27:13.948Z,22.40
2017-08-01T21:29:43.050Z,22.60
2017-08-01T21:32:12.104Z,22.60
2017-08-01T21:34:40.522Z,22.60
2017-08-01T21:37:08.799Z,22.60
2017-08-01T21:39:37.078Z,22.60
2017-08-01T21:42:05.490Z,22.70
2017-08-01T21:44:33.772Z,22.70
2017-08-01T21:47:02.075Z,22.70
2017-08-01T21:49:30.477Z,22.70
2017-08-01T21:51:58.764Z,22.70
2017-08-01T21:54:27.089Z,22.80
2017-08-01T21:56:55.376Z,22.70
2017-08-01T21:59:23.690Z,22.70
2017-08-01T22:01:52.022Z,22.70
2017-08-01T22:04:20.294Z,22.70
2017-08-01T22:06:48.585Z,22.70
2017-08-01T22:09:17.277Z,22.60
2017-08-01T22:11:45.564Z,22.40
2017-08-01T22:14:13.848Z,22.40
2017-08-01T22:16:42.264Z,22.40
2017-08-01T22:19:10.547Z,22.40
2017-08-01T22:21:38.840Z,22.40
2017-08-01T22:24:07.155Z,22.40
2017-08-01T22:26:36.208Z,22.40
2017-08-01T22:29:04.483Z,22.40
2017-08-01T22:31:32.802Z,22.50
2017-08-01T22:34:01.098Z,22.40
2017-08-01T22:36:29.496Z,22.50
2017-08-01T22:38:57.809Z,22.50
2017-08-01T22:41:26.860Z,22.50
2017-08-01T22:43:55.186Z,22.50
2017-08-01T22:46:23.462Z,22.60
2017-08-01T22:48:51.869Z,22.60
2017-08-01T22:51:20.188Z,22.60
2017-08-01T22:53:48.484Z,22.60
2017-08-01T22:56:16.755Z,22.60
2017-08-01T22:58:46.039Z,22.50
2017-08-01T23:01:14.329Z,22.50
2017-08-01T23:03:42.603Z,22.50
2017-08-01T23:06:10.912Z,22.40
2017-08-01T23:08:39.226Z,22.40
2017-08-01T23:11:07.520Z,22.30
2017-08-01T23:13:35.866Z,22.30
2017-08-01T23:16:04.175Z,22.20
2017-08-01T23:18:32.459Z,22.20
2017-08-01T23:21:00.772Z,22.20
2017-08-01T23:23:29.841Z,22.10
2017-08-01T23:25:58.243Z,22.10
2017-08-01T23:28:26.546Z,22.10
2017-08-01T23:30:55.604Z,22.10
2017-08-01T23:33:23.919Z,22.10
2017-08-01T23:35:52.206Z,22.10
2017-08-01T23:38:20.523Z,22.10
2017-08-01T23:40:48.832Z,22.10
2017-08-01T23:43:17.143Z,22.10
2017-08-01T23:45:45.436Z,22.10
2017-08-01T23:48:13.738Z,22.10
2017-08-01T23:50:42.060Z,22.10
2017-08-01T23:53:10.380Z,22.00
2017-08-01T23:55:38.727Z,22.00
2017-08-01T23:58:07.002Z,22.00
